CYDFCYJT

Guest
Details From CYDF - DEER LAKE
To CYJT - STEPHENVILLE
Flight Number -
Tags generated
Created
Modified
Stats Distance 61 nm / 113 km
Max Altitude 6,600 ft / 2,012 m
Waypoints 3
Social Downloads 1
Likes 0
Share VATSIM

Download

Looking for another format? Having issues loading an existing format? Contact us
Advertisement - Login to hide

Notes

Basic altitude profile: - Ascent Rate: 2500ft/min - Ascent Speed: 250kts - Cruise Altitude: 35000ft - Cruise Speed: 420kts - Descent Rate: 1500ft/min - Descent Speed: 250kts Options: - Use NATs: yes - Use PACOTS: yes - Use low airways: yes - Use high airways: no

Route

CYDF FINNI CYJT

ID Type Via Altitude Latitude Longitude Leg Dist Tot Dist Heading (true) Name
O CYDF APT - 0 ft / 0 m 49.21100˚ -57.39125˚ - 0 nm - DEER LAKE
FINNI FIX - 6,600 ft / 2,012 m 49.00111˚ -57.74056˚ 18 nm 18 nm 228° / 227° -
O CYJT APT - 0 ft / 0 m 48.54181˚ -58.55149˚ 42 nm 60 nm 230° / 229° STEPHENVILLE

Altitude Profile

Advertisement - Login to hide

CYDF

Details ICAO CYDF (YDF)
Name DEER LAKE
Region Canada
Timezone America/St_Johns (UTC-2.5)
Stats Elevation 72 ft / 22 m (AMSL)
Location 49.211000° -57.391246°
Runways 1
Magnetic Variation 19.053° W

METAR

CYDF 231700Z 12003KT 090V160 15SM SCT020 OVC100 09/03 A2986 RMK SC4AC4 SLP114

Decode

TAF

TAF CYDF 231347Z 2314/2402 VRB03KT P6SM BKN020 OVC080 TEMPO 2314/2321 SCT020 BKN080 BECMG 2316/2318 06008KT FM232100 05012G22KT P6SM -SHRA OVC015 FM232300 04012G22KT 4SM -SNRA BR OVC012 RMK NXT FCST BY 232000Z

Decode

Departure Runways

ID Width Length Bearing (true) Bearing (mag) Surface Threshold Offset Overrun Length
07 151 ft / 46 m 5,989 ft / 1,825 m 46.32° 65.37° Asphalt 0 ft / 0 m 0 ft / 0 m
25 151 ft / 46 m 5,989 ft / 1,825 m 226.34° 245.39° Asphalt 0 ft / 0 m 0 ft / 0 m

CYJT

Details ICAO CYJT (YJT)
Name STEPHENVILLE
Region Canada
Timezone America/St_Johns (UTC-2.5)
Stats Elevation 80 ft / 24 m (AMSL)
Location 48.541811° -58.551488°
Runways 2
Magnetic Variation 18.846° W

METAR

CYJT 231700Z 19003KT 6SM -RA BR SCT007 OVC014 07/06 A2982 RMK SF3SC5 SLP101

Decode

TAF

TAF CYJT 231140Z 2312/2412 02005KT P6SM FEW008 OVC025 TEMPO 2312/2315 4SM -RA BR BKN008 OVC025 PROB30 2312/2313 1/2SM FG OVC002 FM231500 05008KT 5SM -RA BR OVC015 TEMPO 2315/2324 P6SM -RA OVC025 BECMG 2317/2319 06012KT FM240000 04012G22KT 5SM -RASN OVC015 FM240300 05015G30KT 11/2SM -SN VV012 PROB30 2403/2406 3/4SM -SN VV008 FM240600 04015G30KT 3SM -SN BKN015 BKN080 FM241000 04012G22KT P6SM BKN015 RMK NXT FCST BY 231800Z

Decode

Destination Runways

ID Width Length Bearing (true) Bearing (mag) Surface Threshold Offset Overrun Length
02 150 ft / 46 m 3,770 ft / 1,149 m 355.50° 14.35° Asphalt 0 ft / 0 m 0 ft / 0 m
09 200 ft / 61 m 9,970 ft / 3,039 m 71.61° 90.46° Asphalt 0 ft / 0 m 1,000 ft / 305 m
20 150 ft / 46 m 3,770 ft / 1,149 m 175.50° 194.35° Asphalt 0 ft / 0 m 0 ft / 0 m
27 200 ft / 61 m 9,970 ft / 3,039 m 251.64° 270.49° Asphalt 0 ft / 0 m 1,000 ft / 305 m

Popular Alternatives